Time;durP1;ratioP1;P1;durP2;ratioP2;P2;SDS_P1;SDS_P2;PMS_P1;PMS_P2;Temp;Humidity;BMP_temperature;BMP_pressure;BME280_temperature;BME280_humidity;BME280_pressure;Samples;Min_cycle;Max_cycle;Signal;HPM_P1;HPM_P2
2022/07/07 00:02:09;;;;;;;3.30;3.10;;;18.60;73.70;;;;;;5093572;28;20261;-68
2022/07/07 00:04:36;;;;;;;3.80;3.45;;;18.60;73.50;;;;;;5093538;28;20739;-68
2022/07/07 00:07:03;;;;;;;4.70;3.10;;;18.60;73.20;;;;;;5093179;28;20724;-67
2022/07/07 00:09:30;;;;;;;3.25;2.95;;;18.60;73.30;;;;;;5093405;28;20244;-68
2022/07/07 00:11:58;;;;;;;4.07;3.30;;;18.50;72.90;;;;;;5093763;28;20288;-68
2022/07/07 00:14:25;;;;;;;3.47;3.25;;;18.60;72.80;;;;;;5093135;28;20213;-68
2022/07/07 00:16:53;;;;;;;6.35;3.35;;;18.50;73.00;;;;;;5093393;28;20206;-68
2022/07/07 00:19:20;;;;;;;3.38;3.08;;;18.60;73.00;;;;;;5093413;28;20268;-68
2022/07/07 00:21:47;;;;;;;3.40;3.20;;;18.60;72.90;;;;;;5093159;28;20218;-67
2022/07/07 00:24:14;;;;;;;3.65;3.22;;;18.60;73.00;;;;;;5093274;28;20289;-68
2022/07/07 00:26:41;;;;;;;3.75;3.38;;;18.50;73.30;;;;;;5093204;28;20244;-68
2022/07/07 00:29:08;;;;;;;3.40;3.10;;;18.50;73.20;;;;;;5093224;28;20225;-69
2022/07/07 00:31:35;;;;;;;3.50;3.20;;;18.60;73.50;;;;;;5094177;28;20647;-68
2022/07/07 00:34:03;;;;;;;5.45;3.00;;;18.50;73.80;;;;;;5094541;28;20628;-68
2022/07/07 00:36:30;;;;;;;3.40;3.20;;;18.60;73.50;;;;;;5094480;28;20245;-68
2022/07/07 00:38:58;;;;;;;3.80;3.50;;;18.60;73.80;;;;;;5094502;28;20259;-67
2022/07/07 00:41:26;;;;;;;3.80;3.50;;;18.60;73.90;;;;;;5094414;28;20218;-67
2022/07/07 00:43:52;;;;;;;3.75;3.55;;;18.60;74.40;;;;;;5094249;28;20627;-67
2022/07/07 00:46:20;;;;;;;3.40;3.20;;;18.50;73.60;;;;;;5094077;28;20656;-67
2022/07/07 00:48:47;;;;;;;5.00;3.53;;;18.50;73.70;;;;;;5094428;28;20293;-67
2022/07/07 00:51:15;;;;;;;4.45;4.05;;;18.50;72.80;;;;;;5094053;28;20596;-67
2022/07/07 00:53:42;;;;;;;4.13;3.75;;;18.50;73.00;;;;;;5094217;28;20648;-68
2022/07/07 00:56:09;;;;;;;5.15;3.72;;;18.50;73.20;;;;;;5094154;28;20274;-67
2022/07/07 00:58:37;;;;;;;3.60;3.30;;;18.50;73.40;;;;;;5094311;28;20233;-67
2022/07/07 01:01:05;;;;;;;3.80;3.50;;;18.50;73.40;;;;;;5093856;28;20222;-67
2022/07/07 01:03:32;;;;;;;4.32;3.92;;;18.50;73.40;;;;;;5094084;28;20206;-67
2022/07/07 01:05:59;;;;;;;4.43;4.13;;;18.50;73.40;;;;;;5093756;28;20218;-68
2022/07/07 01:08:28;;;;;;;4.03;3.72;;;18.50;73.70;;;;;;5094046;28;20240;-67
2022/07/07 01:10:55;;;;;;;4.55;4.18;;;18.40;73.60;;;;;;5093877;28;20257;-67
2022/07/07 01:13:21;;;;;;;4.32;3.95;;;18.40;73.40;;;;;;5093959;28;20247;-67
2022/07/07 01:15:48;;;;;;;4.30;4.00;;;18.40;73.80;;;;;;5093715;28;20238;-67
2022/07/07 01:18:15;;;;;;;4.50;4.10;;;18.40;74.20;;;;;;5093935;28;20237;-67
2022/07/07 01:20:47;;;;;;;3.67;3.38;;;18.40;74.50;;;;;;5093905;28;20255;-68
2022/07/07 01:23:16;;;;;;;3.75;3.53;;;18.30;75.20;;;;;;5093848;28;20213;-67
2022/07/07 01:25:43;;;;;;;4.63;4.22;;;18.20;75.80;;;;;;5093630;28;20230;-67
2022/07/07 01:28:10;;;;;;;4.03;3.72;;;18.10;75.10;;;;;;5093909;28;20548;-67
2022/07/07 01:30:37;;;;;;;4.00;3.70;;;18.10;74.80;;;;;;5093571;28;20711;-67
2022/07/07 01:33:04;;;;;;;4.63;4.32;;;17.90;75.20;;;;;;5093439;28;20694;-68
2022/07/07 01:35:31;;;;;;;4.50;4.13;;;17.90;75.50;;;;;;5093488;28;20213;-68
2022/07/07 01:37:58;;;;;;;7.00;4.35;;;17.70;77.70;;;;;;5093507;28;20676;-67
2022/07/07 01:40:26;;;;;;;4.45;4.15;;;17.60;77.70;;;;;;5093575;28;20253;-67
2022/07/07 01:42:53;;;;;;;4.65;4.25;;;17.60;78.10;;;;;;5093643;28;20233;-68
2022/07/07 01:45:20;;;;;;;4.43;4.00;;;17.60;78.20;;;;;;5093226;28;20202;-67
2022/07/07 01:47:47;;;;;;;5.18;4.47;;;17.70;78.70;;;;;;5093293;28;20706;-68
2022/07/07 01:50:14;;;;;;;4.55;4.20;;;17.80;77.40;;;;;;5093278;28;20297;-67
2022/07/07 01:52:41;;;;;;;4.40;4.10;;;17.90;76.80;;;;;;5093589;28;20626;-67
2022/07/07 01:55:08;;;;;;;4.85;4.10;;;17.90;76.60;;;;;;5093179;28;20233;-68
2022/07/07 01:57:37;;;;;;;4.55;4.15;;;17.90;76.60;;;;;;5093401;28;20229;-67
2022/07/07 02:00:04;;;;;;;6.18;4.15;;;17.90;76.60;;;;;;5093370;28;20600;-68
2022/07/07 02:02:31;;;;;;;4.25;3.95;;;17.90;75.90;;;;;;5095523;28;20206;-68
2022/07/07 02:04:58;;;;;;;4.45;4.05;;;17.90;77.20;;;;;;5097319;28;20241;-67
2022/07/07 02:07:25;;;;;;;5.45;3.85;;;17.90;76.20;;;;;;5097071;28;20283;-67
2022/07/07 02:09:52;;;;;;;4.05;3.75;;;18.00;75.70;;;;;;5097304;28;20296;-67
2022/07/07 02:12:19;;;;;;;4.53;4.05;;;18.10;75.50;;;;;;5097428;28;20261;-68
2022/07/07 02:14:47;;;;;;;4.30;4.00;;;18.10;75.40;;;;;;5096951;28;20209;-67
2022/07/07 02:17:14;;;;;;;4.03;3.72;;;18.00;75.10;;;;;;5097270;28;20635;-67
2022/07/07 02:19:41;;;;;;;4.13;3.83;;;18.00;74.60;;;;;;5097732;28;20627;-67
2022/07/07 02:22:08;;;;;;;4.53;3.95;;;18.10;73.60;;;;;;5097554;28;20746;-67
2022/07/07 02:24:35;;;;;;;4.30;4.00;;;18.00;74.60;;;;;;5097400;28;20224;-68
2022/07/07 02:27:02;;;;;;;4.20;3.83;;;18.00;74.80;;;;;;5096986;28;20222;-67
2022/07/07 02:29:29;;;;;;;4.95;4.22;;;17.90;76.30;;;;;;5096969;28;20691;-67
2022/07/07 02:31:57;;;;;;;4.88;4.47;;;17.90;76.50;;;;;;5096650;28;20234;-68
2022/07/07 02:34:24;;;;;;;5.35;4.53;;;18.00;77.20;;;;;;5096909;28;20201;-67
2022/07/07 02:36:51;;;;;;;4.70;4.30;;;18.00;77.50;;;;;;5096869;28;20194;-67
2022/07/07 02:39:18;;;;;;;4.75;4.05;;;17.90;78.40;;;;;;5096749;28;20292;-68
2022/07/07 02:41:45;;;;;;;4.55;4.15;;;17.90;79.00;;;;;;5097277;28;20647;-67
2022/07/07 02:44:12;;;;;;;5.30;4.90;;;17.80;79.60;;;;;;5097053;28;20233;-68
2022/07/07 02:46:39;;;;;;;4.60;4.20;;;17.90;79.50;;;;;;5097172;28;20629;-67
2022/07/07 02:49:07;;;;;;;4.80;4.40;;;17.90;81.60;;;;;;5096799;28;20257;-67
2022/07/07 02:51:34;;;;;;;5.05;4.40;;;17.90;80.90;;;;;;5096470;28;20261;-67
2022/07/07 02:54:01;;;;;;;4.35;4.05;;;18.00;80.70;;;;;;5096393;28;20234;-67
2022/07/07 02:56:27;;;;;;;3.90;3.60;;;17.80;81.90;;;;;;5096457;28;20597;-67
2022/07/07 02:58:54;;;;;;;4.43;4.03;;;17.70;81.90;;;;;;5096560;28;20248;-67
2022/07/07 03:01:21;;;;;;;4.90;4.40;;;17.70;84.30;;;;;;5096259;28;20260;-67
2022/07/07 03:03:48;;;;;;;4.95;4.03;;;17.70;84.40;;;;;;5096268;28;20209;-67
2022/07/07 03:06:16;;;;;;;4.10;3.70;;;17.60;85.00;;;;;;5096007;28;20237;-67
2022/07/07 03:08:43;;;;;;;4.25;3.95;;;17.60;85.10;;;;;;5095976;28;20202;-67
2022/07/07 03:11:10;;;;;;;5.13;3.80;;;17.50;84.60;;;;;;5096534;28;20313;-68
2022/07/07 03:13:37;;;;;;;4.85;3.80;;;17.60;85.50;;;;;;5096079;28;20238;-67
2022/07/07 03:16:04;;;;;;;4.03;3.38;;;17.70;85.60;;;;;;5095878;28;20305;-68
2022/07/07 03:18:31;;;;;;;3.75;3.45;;;17.70;84.40;;;;;;5096071;28;20204;-68
2022/07/07 03:20:58;;;;;;;3.97;3.67;;;17.80;83.70;;;;;;5095829;28;20313;-67
2022/07/07 03:23:26;;;;;;;3.63;3.33;;;17.70;83.10;;;;;;5095949;28;20256;-67
2022/07/07 03:25:53;;;;;;;3.40;3.20;;;17.70;82.20;;;;;;5095782;28;20293;-67
2022/07/07 03:28:20;;;;;;;3.30;3.05;;;17.80;81.80;;;;;;5095471;28;20253;-67
2022/07/07 03:30:47;;;;;;;4.13;2.95;;;17.70;82.90;;;;;;5095673;28;20574;-67
2022/07/07 03:33:14;;;;;;;3.20;3.00;;;17.70;82.90;;;;;;5095798;28;20289;-67
2022/07/07 03:35:41;;;;;;;3.40;3.20;;;17.60;84.00;;;;;;5095295;28;20292;-67
2022/07/07 03:38:08;;;;;;;3.40;3.10;;;17.50;85.00;;;;;;5095454;28;20206;-67
2022/07/07 03:40:37;;;;;;;5.55;3.08;;;17.60;84.60;;;;;;5095631;28;20313;-68
2022/07/07 03:43:04;;;;;;;3.42;3.13;;;17.60;85.00;;;;;;5096045;28;20632;-67
2022/07/07 03:45:30;;;;;;;3.50;3.30;;;17.60;85.50;;;;;;5095308;28;20305;-67
2022/07/07 03:47:57;;;;;;;3.70;3.40;;;17.60;85.10;;;;;;5095582;28;20313;-68
2022/07/07 03:50:24;;;;;;;3.83;3.53;;;17.60;85.70;;;;;;5095313;28;20313;-67
2022/07/07 03:52:51;;;;;;;3.15;2.95;;;17.60;85.20;;;;;;5095155;28;20289;-67
2022/07/07 03:55:18;;;;;;;3.20;2.83;;;17.60;83.80;;;;;;5095011;28;20743;-67
2022/07/07 03:57:46;;;;;;;2.65;2.45;;;17.60;82.70;;;;;;5095154;28;20722;-67
2022/07/07 04:00:14;;;;;;;3.00;2.70;;;17.70;82.30;;;;;;5095154;28;20289;-67
2022/07/07 04:02:40;;;;;;;5.50;3.10;;;17.80;82.50;;;;;;5095161;28;20237;-67
2022/07/07 04:05:08;;;;;;;3.30;3.00;;;17.90;82.00;;;;;;5095023;28;20209;-67
2022/07/07 04:07:35;;;;;;;3.35;2.70;;;18.00;81.50;;;;;;5094749;28;20310;-67
2022/07/07 04:10:02;;;;;;;2.90;2.70;;;18.10;81.40;;;;;;5095078;28;20206;-68
2022/07/07 04:12:29;;;;;;;9.80;8.43;;;18.10;81.30;;;;;;5094796;28;20293;-67
2022/07/07 04:14:58;;;;;;;6.82;6.13;;;18.10;81.30;;;;;;5094885;28;20738;-68
2022/07/07 04:17:25;;;;;;;4.13;3.72;;;18.10;81.50;;;;;;5094851;28;20285;-68
2022/07/07 04:19:52;;;;;;;7.25;3.60;;;18.20;82.00;;;;;;5094860;28;20567;-68
2022/07/07 04:22:19;;;;;;;3.67;3.20;;;18.30;82.10;;;;;;5094860;28;20617;-68
2022/07/07 04:24:46;;;;;;;3.00;2.80;;;18.30;84.00;;;;;;5094033;28;20292;-68
2022/07/07 04:27:12;;;;;;;3.35;3.05;;;18.30;83.00;;;;;;5094701;28;20218;-68
2022/07/07 04:29:39;;;;;;;3.30;3.10;;;18.20;83.30;;;;;;5094647;28;20631;-68
2022/07/07 04:32:08;;;;;;;3.30;3.00;;;18.20;83.10;;;;;;5094358;28;20711;-67
2022/07/07 04:34:35;;;;;;;2.97;2.78;;;18.20;83.40;;;;;;5094441;28;20615;-68
2022/07/07 04:37:02;;;;;;;2.75;2.50;;;18.30;82.90;;;;;;5094591;28;20615;-68
2022/07/07 04:39:29;;;;;;;3.30;3.10;;;18.30;82.60;;;;;;5094686;28;20234;-68
2022/07/07 04:41:56;;;;;;;3.47;3.17;;;18.50;83.00;;;;;;5094427;28;20306;-68
2022/07/07 04:44:23;;;;;;;3.22;2.90;;;18.50;81.70;;;;;;5094126;28;20561;-68
2022/07/07 04:46:50;;;;;;;3.35;3.10;;;18.50;81.10;;;;;;5094064;28;20206;-68
2022/07/07 04:49:18;;;;;;;4.15;3.10;;;18.60;81.00;;;;;;5094128;28;20237;-68
2022/07/07 04:51:45;;;;;;;2.95;2.70;;;18.50;82.40;;;;;;5094306;28;20321;-68
2022/07/07 04:54:12;;;;;;;3.25;2.95;;;18.60;82.20;;;;;;5094049;28;20198;-68
2022/07/07 04:56:39;;;;;;;3.25;2.95;;;18.60;81.90;;;;;;5094223;28;20288;-68
2022/07/07 04:59:06;;;;;;;4.95;3.83;;;18.60;82.40;;;;;;5094206;28;20755;-68
2022/07/07 05:01:32;;;;;;;3.20;3.00;;;18.50;82.50;;;;;;5093883;28;20222;-68
2022/07/07 05:03:59;;;;;;;3.20;2.90;;;18.50;81.80;;;;;;5094233;28;20567;-68
2022/07/07 05:06:28;;;;;;;5.75;2.85;;;18.60;81.60;;;;;;5093704;28;20306;-68
2022/07/07 05:08:54;;;;;;;4.95;3.03;;;18.50;82.60;;;;;;5094189;28;20253;-68
2022/07/07 05:11:21;;;;;;;3.20;3.00;;;18.60;82.10;;;;;;5094049;28;20656;-68
2022/07/07 05:13:48;;;;;;;2.97;2.78;;;18.50;81.40;;;;;;5094053;28;20296;-67
2022/07/07 05:16:15;;;;;;;3.00;2.80;;;18.50;80.90;;;;;;5094119;28;20300;-68
2022/07/07 05:18:42;;;;;;;2.83;2.63;;;18.50;81.40;;;;;;5093744;28;20204;-68
2022/07/07 05:21:09;;;;;;;3.78;2.95;;;18.50;80.60;;;;;;5094020;28;20222;-68
2022/07/07 05:23:37;;;;;;;3.17;2.97;;;18.50;80.20;;;;;;5093883;28;20297;-68
2022/07/07 05:26:04;;;;;;;3.40;3.20;;;18.60;80.10;;;;;;5093723;28;20293;-68
2022/07/07 05:28:31;;;;;;;3.00;2.80;;;18.60;80.40;;;;;;5093737;28;20227;-68
2022/07/07 05:30:59;;;;;;;3.03;2.83;;;18.60;80.90;;;;;;5093727;28;20650;-68
2022/07/07 05:33:26;;;;;;;8.05;6.30;;;18.60;80.90;;;;;;5094082;28;20256;-68
2022/07/07 05:35:52;;;;;;;8.80;5.90;;;18.60;80.50;;;;;;5092818;28;20297;-68
2022/07/07 05:38:19;;;;;;;3.88;3.58;;;18.70;80.40;;;;;;5093336;28;20229;-68
2022/07/07 05:40:48;;;;;;;3.20;3.00;;;18.60;80.30;;;;;;5093338;28;20306;-68
2022/07/07 05:43:15;;;;;;;4.20;3.22;;;18.60;81.30;;;;;;5093350;28;20297;-68
2022/07/07 05:45:41;;;;;;;4.43;3.20;;;18.70;81.00;;;;;;5093480;28;20293;-68
2022/07/07 05:48:08;;;;;;;2.70;2.50;;;18.70;81.40;;;;;;5093505;28;20318;-68
2022/07/07 05:50:35;;;;;;;2.90;2.70;;;18.70;81.90;;;;;;5093435;28;20313;-68
2022/07/07 05:53:02;;;;;;;3.40;3.15;;;18.60;83.60;;;;;;5093526;28;20309;-68
2022/07/07 05:55:29;;;;;;;7.13;5.32;;;18.60;82.50;;;;;;5093123;28;20293;-68
2022/07/07 05:57:57;;;;;;;2.83;2.63;;;18.60;82.10;;;;;;5093530;28;20289;-68
2022/07/07 06:00:25;;;;;;;3.25;2.90;;;18.60;81.30;;;;;;5093273;28;20996;-68
2022/07/07 06:02:52;;;;;;;3.17;2.90;;;18.70;81.50;;;;;;5093520;28;20207;-68
2022/07/07 06:05:19;;;;;;;2.90;2.70;;;18.70;81.20;;;;;;5093101;28;20381;-68
2022/07/07 06:07:46;;;;;;;3.60;2.70;;;18.80;82.00;;;;;;5092954;28;20309;-68
2022/07/07 06:10:14;;;;;;;3.20;2.90;;;18.80;81.50;;;;;;5093091;28;20739;-68
2022/07/07 06:12:41;;;;;;;4.45;4.05;;;18.80;82.80;;;;;;5093462;28;20206;-67
2022/07/07 06:15:10;;;;;;;3.40;3.05;;;18.90;83.00;;;;;;5093274;28;20284;-68
2022/07/07 06:17:37;;;;;;;3.87;3.47;;;18.90;84.00;;;;;;5093355;28;20290;-68
2022/07/07 06:20:04;;;;;;;3.03;2.80;;;19.00;83.00;;;;;;5093287;28;20527;-68
2022/07/07 06:22:31;;;;;;;3.00;2.80;;;19.00;84.40;;;;;;5093366;28;20528;-68
2022/07/07 06:24:58;;;;;;;4.40;3.10;;;19.10;82.10;;;;;;5092869;28;20294;-68
2022/07/07 06:27:26;;;;;;;3.15;2.95;;;19.20;81.90;;;;;;5093038;28;20532;-68
2022/07/07 06:29:55;;;;;;;4.30;2.90;;;19.30;81.70;;;;;;5093136;28;20200;-68
2022/07/07 06:32:23;;;;;;;2.87;2.67;;;19.40;81.40;;;;;;5092884;28;21011;-68
2022/07/07 06:34:50;;;;;;;3.83;2.80;;;19.50;81.30;;;;;;5092863;28;20533;-68
2022/07/07 06:37:17;;;;;;;3.20;3.00;;;19.50;80.00;;;;;;5093245;28;20488;-68
2022/07/07 06:39:44;;;;;;;2.97;2.77;;;19.50;80.20;;;;;;5093163;28;20520;-68
2022/07/07 06:42:11;;;;;;;3.50;2.90;;;19.50;80.40;;;;;;5093117;28;20535;-68
2022/07/07 06:44:37;;;;;;;3.23;2.97;;;19.60;81.40;;;;;;5092836;28;20867;-68
2022/07/07 06:47:05;;;;;;;3.20;3.00;;;19.70;81.00;;;;;;5093053;28;20616;-68
2022/07/07 06:49:33;;;;;;;3.20;2.90;;;19.90;80.00;;;;;;5096839;28;20477;-68
2022/07/07 06:52:00;;;;;;;3.20;3.00;;;20.00;79.40;;;;;;5096665;28;20549;-68
2022/07/07 06:54:27;;;;;;;3.40;3.20;;;20.00;79.90;;;;;;5096324;28;20477;-68
2022/07/07 06:56:53;;;;;;;4.17;3.20;;;20.10;79.60;;;;;;5096482;28;21000;-68
2022/07/07 06:59:21;;;;;;;4.43;3.17;;;20.20;79.20;;;;;;5096404;28;20522;-68
2022/07/07 07:01:48;;;;;;;4.33;3.40;;;20.30;81.20;;;;;;5096141;28;20885;-69
2022/07/07 07:04:14;;;;;;;3.83;3.17;;;20.30;80.00;;;;;;5095986;28;20534;-69
2022/07/07 07:06:43;;;;;;;3.60;3.30;;;20.30;79.20;;;;;;5095954;28;20545;-68
2022/07/07 07:09:11;;;;;;;4.03;3.70;;;20.40;79.50;;;;;;5096099;28;21103;-68
2022/07/07 07:11:37;;;;;;;4.17;3.77;;;20.50;79.60;;;;;;5096044;28;21028;-68
2022/07/07 07:14:04;;;;;;;3.90;3.60;;;20.70;78.00;;;;;;5096105;28;20443;-68
2022/07/07 07:16:31;;;;;;;3.07;2.83;;;20.70;78.10;;;;;;5096125;28;20879;-68
2022/07/07 07:18:58;;;;;;;3.67;3.30;;;20.80;78.20;;;;;;5096283;28;20534;-68
2022/07/07 07:21:25;;;;;;;4.47;3.37;;;20.90;77.40;;;;;;5096335;28;20470;-68
2022/07/07 07:23:54;;;;;;;3.50;3.30;;;20.90;76.80;;;;;;5095836;28;20561;-68
2022/07/07 07:26:21;;;;;;;3.50;3.30;;;21.00;78.10;;;;;;5095871;28;20529;-68
2022/07/07 07:28:48;;;;;;;3.40;3.20;;;21.00;77.70;;;;;;5095819;28;20911;-68
2022/07/07 07:31:15;;;;;;;3.67;3.37;;;21.00;78.10;;;;;;5095620;28;20549;-68
2022/07/07 07:33:42;;;;;;;4.30;3.70;;;21.10;78.30;;;;;;5095603;28;20536;-68
2022/07/07 07:36:09;;;;;;;4.13;3.80;;;21.10;77.40;;;;;;5095610;28;21006;-68
2022/07/07 07:38:37;;;;;;;3.80;3.50;;;21.10;77.10;;;;;;5095812;28;20451;-68
2022/07/07 07:41:06;;;;;;;4.20;3.50;;;21.10;79.10;;;;;;5095407;28;20496;-68
2022/07/07 07:43:34;;;;;;;3.10;2.90;;;21.00;79.00;;;;;;5095627;28;20530;-68
2022/07/07 07:46:01;;;;;;;4.90;3.50;;;20.90;78.50;;;;;;5095434;28;20529;-68
2022/07/07 07:48:27;;;;;;;4.00;3.70;;;21.00;79.50;;;;;;5095470;28;20479;-68
2022/07/07 07:50:54;;;;;;;3.40;3.17;;;21.20;78.10;;;;;;5095359;28;20460;-68
2022/07/07 07:53:21;;;;;;;3.50;3.20;;;21.30;77.40;;;;;;5095601;28;20534;-68
2022/07/07 07:55:50;;;;;;;3.50;3.20;;;21.30;77.80;;;;;;5095220;28;20444;-69
2022/07/07 07:58:18;;;;;;;3.93;3.53;;;21.30;78.70;;;;;;5095472;28;20438;-66
2022/07/07 08:00:45;;;;;;;7.53;6.83;;;21.20;79.20;;;;;;5094372;28;20547;-69
2022/07/07 08:03:12;;;;;;;3.50;3.30;;;21.10;79.90;;;;;;5094871;28;20439;-68
2022/07/07 08:05:39;;;;;;;4.07;3.63;;;21.00;79.60;;;;;;5106293;28;20541;-69
2022/07/07 08:08:06;;;;;;;4.07;3.77;;;20.90;79.70;;;;;;5093766;28;20556;-67
2022/07/07 08:10:34;;;;;;;4.97;4.13;;;20.80;80.80;;;;;;5093389;28;20980;-69
2022/07/07 08:13:02;;;;;;;3.97;3.57;;;20.80;80.40;;;;;;5093987;28;20455;-70
2022/07/07 08:15:30;;;;;;;3.80;3.50;;;20.70;79.80;;;;;;5093682;28;20959;-71
2022/07/07 08:17:57;;;;;;;4.30;3.90;;;20.60;79.80;;;;;;5093440;28;20538;-71
2022/07/07 08:20:26;;;;;;;4.47;4.07;;;20.60;80.20;;;;;;5093456;28;20534;-71
2022/07/07 08:22:52;;;;;;;4.40;4.03;;;20.60;80.20;;;;;;5094526;28;20949;-69
2022/07/07 08:25:19;;;;;;;4.47;3.70;;;20.50;80.90;;;;;;5094447;28;20801;-69
2022/07/07 08:27:46;;;;;;;4.50;4.10;;;20.50;81.00;;;;;;5094774;28;20809;-68
2022/07/07 08:30:13;;;;;;;4.30;4.00;;;20.70;81.60;;;;;;5094429;28;20561;-69
2022/07/07 08:32:45;;;;;;;4.20;3.90;;;20.70;81.80;;;;;;5094718;28;20444;-69
2022/07/07 08:35:11;;;;;;;4.93;4.30;;;20.70;81.70;;;;;;5094254;28;20494;-68
2022/07/07 08:37:38;;;;;;;5.23;4.83;;;20.70;81.80;;;;;;5094538;28;20542;-69
2022/07/07 08:40:06;;;;;;;4.83;4.53;;;20.60;82.80;;;;;;5094542;28;20864;-69
2022/07/07 08:42:33;;;;;;;4.67;4.37;;;20.60;83.50;;;;;;5094606;28;20436;-69
2022/07/07 08:45:00;;;;;;;5.60;4.70;;;20.60;83.50;;;;;;5094290;28;20525;-68
2022/07/07 08:47:27;;;;;;;4.90;4.60;;;20.60;83.30;;;;;;5094393;28;20492;-68
2022/07/07 08:49:55;;;;;;;5.60;5.03;;;20.60;83.60;;;;;;5094336;28;20892;-68
2022/07/07 08:52:22;;;;;;;5.10;4.63;;;20.60;84.70;;;;;;5094201;28;20467;-69
2022/07/07 08:54:50;;;;;;;5.70;5.20;;;20.80;85.20;;;;;;5094146;28;20848;-69
2022/07/07 08:57:18;;;;;;;5.73;5.00;;;20.90;84.00;;;;;;5094499;28;20455;-68
2022/07/07 08:59:45;;;;;;;5.63;5.10;;;21.10;83.90;;;;;;5094522;28;20531;-68
2022/07/07 09:02:12;;;;;;;6.37;5.77;;;21.30;84.50;;;;;;5094193;28;20553;-68
2022/07/07 09:04:39;;;;;;;5.63;5.07;;;21.70;84.00;;;;;;5093809;28;20490;-69
2022/07/07 09:07:07;;;;;;;6.70;5.10;;;22.50;81.00;;;;;;5093935;28;20558;-69
2022/07/07 09:09:42;;;;;;;5.30;4.90;;;23.00;81.10;;;;;;5093795;28;20565;-69
2022/07/07 09:12:11;;;;;;;6.60;4.83;;;23.40;79.80;;;;;;5094315;28;20548;-69
2022/07/07 09:14:40;;;;;;;4.80;4.40;;;24.80;76.70;;;;;;5093675;28;20440;-69
2022/07/07 09:17:16;;;;;;;5.97;5.57;;;26.20;71.70;;;;;;5093844;28;20531;-69
2022/07/07 09:19:44;;;;;;;5.67;5.27;;;26.30;69.60;;;;;;5093971;28;20752;-67
2022/07/07 09:22:13;;;;;;;5.97;5.47;;;25.90;69.40;;;;;;5093873;28;20471;-69
2022/07/07 09:24:56;;;;;;;6.07;5.57;;;25.60;70.50;;;;;;5093594;28;20899;-69
2022/07/07 09:27:23;;;;;;;5.60;5.07;;;24.70;71.90;;;;;;5093825;28;20785;-69
2022/07/07 09:29:50;;;;;;;5.20;4.80;;;23.90;74.30;;;;;;5093601;28;20515;-69
2022/07/07 09:32:17;;;;;;;4.80;4.40;;;23.00;77.60;;;;;;5093787;28;20468;-69
2022/07/07 09:34:44;;;;;;;5.70;3.87;;;22.50;80.10;;;;;;5093741;28;20527;-69
2022/07/07 09:39:58;;;;;;;3.63;3.03;;;21.80;85.00;;;;;;5093833;28;20420;-69
2022/07/07 09:42:27;;;;;;;3.13;2.83;;;21.60;88.10;;;;;;5093354;28;20517;-68
2022/07/07 09:44:56;;;;;;;3.10;2.90;;;21.20;89.00;;;;;;5093518;28;20522;-68
2022/07/07 09:47:25;;;;;;;3.80;2.80;;;21.10;90.20;;;;;;5093479;28;20481;-68
2022/07/07 09:50:00;;;;;;;3.07;2.87;;;20.80;90.80;;;;;;5093608;28;20569;-69
2022/07/07 09:52:27;;;;;;;3.53;3.10;;;20.60;91.70;;;;;;5093258;28;20478;-69
2022/07/07 09:54:57;;;;;;;3.87;3.03;;;20.60;92.10;;;;;;5093290;28;20446;-69
2022/07/07 09:57:23;;;;;;;3.30;2.90;;;20.40;94.10;;;;;;5093554;28;20481;-69
2022/07/07 09:59:51;;;;;;;3.90;3.47;;;20.40;94.60;;;;;;5093374;28;20523;-69
2022/07/07 10:02:23;;;;;;;3.50;2.93;;;20.50;95.00;;;;;;5093235;28;21035;-69
2022/07/07 10:04:51;;;;;;;4.43;3.73;;;20.50;93.90;;;;;;5093206;28;20457;-69
2022/07/07 10:07:22;;;;;;;3.43;3.13;;;20.60;93.10;;;;;;5093291;28;21027;-69
2022/07/07 10:09:52;;;;;;;3.13;2.83;;;20.70;93.40;;;;;;5093465;28;20569;-69
2022/07/07 10:12:23;;;;;;;3.73;3.53;;;20.70;92.60;;;;;;5093642;28;20470;-69
2022/07/07 10:14:54;;;;;;;3.70;3.37;;;20.70;92.90;;;;;;5093371;28;20453;-69
2022/07/07 10:17:22;;;;;;;3.53;3.23;;;20.80;93.30;;;;;;5093521;28;20538;-69
2022/07/07 10:19:49;;;;;;;3.50;3.20;;;20.90;92.70;;;;;;5093333;28;20450;-69
2022/07/07 10:22:17;;;;;;;7.20;6.37;;;21.00;91.90;;;;;;5093616;28;20550;-69
2022/07/07 10:24:45;;;;;;;8.27;6.83;;;21.00;91.90;;;;;;5097024;28;20880;-68
2022/07/07 10:27:17;;;;;;;3.40;3.10;;;21.10;91.80;;;;;;5097137;28;20477;-69
2022/07/07 10:29:48;;;;;;;4.00;3.70;;;21.10;92.00;;;;;;5097064;28;20479;-69
2022/07/07 10:32:17;;;;;;;3.60;3.30;;;21.30;92.20;;;;;;5096775;28;20478;-68
2022/07/07 10:34:51;;;;;;;3.77;3.47;;;21.40;91.80;;;;;;5096805;28;20527;-68
2022/07/07 10:37:18;;;;;;;3.77;3.50;;;21.50;92.40;;;;;;5096936;28;20532;-69
2022/07/07 10:39:47;;;;;;;4.03;3.63;;;21.50;91.20;;;;;;5096895;28;20531;-69
2022/07/07 10:42:57;;;;;;;3.70;3.40;;;21.50;90.90;;;;;;5096837;28;20554;-68
2022/07/07 10:45:28;;;;;;;3.57;3.27;;;21.30;91.20;;;;;;5096618;28;20531;-69
2022/07/07 10:47:55;;;;;;;3.50;3.30;;;21.40;91.60;;;;;;5096774;28;20526;-69
2022/07/07 10:50:30;;;;;;;3.87;3.57;;;21.50;91.90;;;;;;5096583;28;20511;-69
2022/07/07 10:52:58;;;;;;;3.80;3.50;;;21.50;91.40;;;;;;5096602;28;20448;-68
2022/07/07 10:55:57;;;;;;;4.03;3.50;;;21.50;90.90;;;;;;5096455;28;20886;-69
2022/07/07 10:58:56;;;;;;;3.30;3.10;;;21.50;90.80;;;;;;5096663;28;20471;-69
2022/07/07 11:01:26;;;;;;;3.87;3.53;;;21.40;91.30;;;;;;5096384;28;20547;-69
2022/07/07 11:03:53;;;;;;;4.23;3.40;;;21.50;91.50;;;;;;5096072;28;20443;-68
2022/07/07 11:06:21;;;;;;;3.50;3.30;;;21.60;91.50;;;;;;5096030;28;20652;-69
2022/07/07 11:09:02;;;;;;;5.97;5.23;;;21.50;91.20;;;;;;5096282;28;20779;-69
2022/07/07 11:11:30;;;;;;;3.10;2.90;;;21.50;91.60;;;;;;5096248;28;20474;-68
2022/07/07 11:14:09;;;;;;;3.70;3.30;;;21.30;91.10;;;;;;5095801;28;21017;-69
2022/07/07 11:16:39;;;;;;;4.20;2.93;;;21.40;91.90;;;;;;5096153;28;20525;-69
2022/07/07 11:19:07;;;;;;;3.33;3.00;;;21.30;91.80;;;;;;5096405;28;21005;-69
2022/07/07 11:21:41;;;;;;;4.67;3.03;;;21.30;91.70;;;;;;5095999;28;20585;-68
2022/07/07 11:24:20;;;;;;;3.30;3.00;;;21.20;91.80;;;;;;5095990;28;20437;-69
2022/07/07 11:26:58;;;;;;;3.53;3.10;;;21.20;91.80;;;;;;5096009;28;20447;-69
2022/07/07 11:29:25;;;;;;;3.30;3.00;;;21.10;92.60;;;;;;5095819;28;20558;-68
2022/07/07 11:32:06;;;;;;;3.67;3.00;;;21.10;92.10;;;;;;5095831;28;20466;-68
2022/07/07 11:34:43;;;;;;;3.60;3.30;;;21.10;92.50;;;;;;5094385;28;20874;-69
2022/07/07 11:37:25;;;;;;;3.07;2.77;;;21.10;92.20;;;;;;5096314;28;20534;-69
2022/07/07 11:39:52;;;;;;;3.33;3.00;;;21.10;92.60;;;;;;5095750;28;20504;-69
2022/07/07 11:42:19;;;;;;;3.10;2.90;;;21.10;92.80;;;;;;5095696;28;20888;-69
2022/07/07 11:44:46;;;;;;;5.63;3.80;;;21.10;92.10;;;;;;5095268;28;20881;-69
2022/07/07 11:47:14;;;;;;;3.33;2.83;;;21.00;93.20;;;;;;5095551;28;20538;-68
2022/07/07 11:49:41;;;;;;;3.40;3.20;;;20.90;92.60;;;;;;5095218;28;20988;-69
2022/07/07 11:52:12;;;;;;;3.50;3.30;;;20.90;92.10;;;;;;5095450;28;20524;-69
2022/07/07 11:54:44;;;;;;;3.87;3.57;;;20.80;92.50;;;;;;5095185;28;20454;-69
2022/07/07 11:57:11;;;;;;;4.13;3.70;;;20.90;93.20;;;;;;5095469;28;20789;-69
2022/07/07 11:59:38;;;;;;;3.67;3.33;;;20.80;92.90;;;;;;5095258;28;20467;-69
2022/07/07 12:02:18;;;;;;;3.40;3.03;;;20.90;92.70;;;;;;5095300;28;20470;-69
2022/07/07 12:04:45;;;;;;;3.90;3.60;;;20.90;92.40;;;;;;5095140;28;20448;-68
2022/07/07 12:07:12;;;;;;;4.70;3.70;;;21.00;92.50;;;;;;5094949;28;20828;-69
2022/07/07 12:09:45;;;;;;;3.93;3.73;;;21.00;92.70;;;;;;5094970;28;20477;-69
2022/07/07 12:12:17;;;;;;;3.70;3.43;;;21.10;92.70;;;;;;5094842;28;20479;-69
2022/07/07 12:14:44;;;;;;;3.70;3.50;;;21.10;92.70;;;;;;5094963;28;20447;-69
2022/07/07 12:17:11;;;;;;;3.43;3.13;;;21.10;92.60;;;;;;5095184;28;20476;-69
2022/07/07 12:19:47;;;;;;;4.20;3.80;;;21.20;92.60;;;;;;5094918;28;20790;-69
2022/07/07 12:22:14;;;;;;;4.23;3.83;;;21.30;91.60;;;;;;5094606;28;21027;-69
2022/07/07 12:24:41;;;;;;;4.00;3.60;;;21.30;91.60;;;;;;5094515;28;20534;-69
2022/07/07 12:27:17;;;;;;;4.33;3.90;;;21.40;91.50;;;;;;5094835;28;20534;-69
2022/07/07 12:29:59;;;;;;;3.87;3.57;;;21.40;91.20;;;;;;5094730;28;20481;-69
2022/07/07 12:32:26;;;;;;;4.10;3.80;;;21.40;91.40;;;;;;5094513;28;20479;-69
2022/07/07 12:34:54;;;;;;;4.07;3.87;;;21.40;91.00;;;;;;5094432;28;20534;-68
2022/07/07 12:37:21;;;;;;;4.10;3.80;;;21.40;91.10;;;;;;5094774;28;21005;-67
2022/07/07 12:39:51;;;;;;;6.40;3.80;;;21.40;91.10;;;;;;5094935;28;20463;-67
2022/07/07 12:42:25;;;;;;;4.10;3.70;;;21.50;91.00;;;;;;5094611;28;20460;-68
2022/07/07 12:44:52;;;;;;;4.10;3.80;;;21.60;90.90;;;;;;5094291;28;20535;-67
2022/07/07 12:47:19;;;;;;;4.07;3.70;;;21.70;91.30;;;;;;5096339;28;20454;-68
2022/07/07 12:49:54;;;;;;;5.10;4.70;;;21.70;91.10;;;;;;5095049;28;20583;-67
2022/07/07 12:52:21;;;;;;;6.10;5.60;;;21.70;91.00;;;;;;5094421;28;20549;-68
2022/07/07 12:54:48;;;;;;;7.30;6.53;;;21.70;91.20;;;;;;5094145;28;20561;-67
2022/07/07 12:57:15;;;;;;;5.73;5.23;;;21.50;90.90;;;;;;5094343;28;20999;-67